createdAt,value
2022-12-01T00:01:57.465Z,3.93
2022-12-01T00:07:00.103Z,4.13
2022-12-01T00:12:04.222Z,4.02
2022-12-01T00:17:06.768Z,4.00
2022-12-01T00:22:09.318Z,3.55
2022-12-01T00:27:13.230Z,3.17
2022-12-01T00:32:16.064Z,3.67
2022-12-01T00:37:18.668Z,3.86
2022-12-01T00:42:22.619Z,3.57
2022-12-01T00:47:25.662Z,3.75
2022-12-01T00:52:28.332Z,3.48
2022-12-01T00:57:32.314Z,3.93
2022-12-01T01:02:39.635Z,3.91
2022-12-01T01:07:43.464Z,4.19
2022-12-01T01:12:47.391Z,3.95
2022-12-01T01:17:49.988Z,4.13
2022-12-01T01:22:52.545Z,3.74
2022-12-01T01:27:56.450Z,4.12
2022-12-01T01:33:00.019Z,4.23
2022-12-01T01:38:02.567Z,4.16
2022-12-01T01:43:15.539Z,3.68
2022-12-01T01:48:18.219Z,3.94
2022-12-01T01:53:21.395Z,3.56
2022-12-01T01:58:25.676Z,3.81
2022-12-01T02:03:30.287Z,4.31
2022-12-01T02:08:33.961Z,3.59
2022-12-01T02:13:47.894Z,3.26
2022-12-01T02:18:56.648Z,3.75
2022-12-01T02:24:46.610Z,3.97
2022-12-01T02:30:06.860Z,4.21
2022-12-01T02:35:17.272Z,4.15
2022-12-01T02:40:24.625Z,4.16
2022-12-01T02:45:37.621Z,3.63
2022-12-01T02:50:43.615Z,3.35
2022-12-01T02:55:51.258Z,4.02
2022-12-01T03:01:18.056Z,4.19
2022-12-01T03:06:30.915Z,4.09
2022-12-01T03:11:42.347Z,3.54
2022-12-01T03:16:50.980Z,3.59
2022-12-01T03:22:01.157Z,3.12
2022-12-01T03:27:05.256Z,3.85
2022-12-01T03:32:13.908Z,3.23
2022-12-01T03:37:23.153Z,2.76
2022-12-01T03:42:29.032Z,3.68
2022-12-01T03:47:35.628Z,3.62
2022-12-01T03:52:46.733Z,3.10
2022-12-01T03:57:55.267Z,2.69
2022-12-01T04:02:58.427Z,2.32
2022-12-01T04:08:02.773Z,2.27
2022-12-01T04:13:05.412Z,2.02
2022-12-01T04:18:07.966Z,2.01
2022-12-01T04:23:31.884Z,2.24
2022-12-01T04:28:34.490Z,1.49
2022-12-01T04:33:37.145Z,1.91
2022-12-01T04:38:41.167Z,2.12
2022-12-01T04:43:44.579Z,1.93
2022-12-01T04:48:49.131Z,2.51
2022-12-01T04:53:52.954Z,1.88
2022-12-01T04:58:55.654Z,1.23
2022-12-01T05:03:58.285Z,1.44
2022-12-01T05:09:03.052Z,1.00
2022-12-01T05:14:05.740Z,0.86
2022-12-01T05:19:26.221Z,1.44
2022-12-01T05:24:30.286Z,1.69
2022-12-01T05:29:33.041Z,1.36
2022-12-01T05:34:35.601Z,1.16
2022-12-01T05:39:40.220Z,1.45
2022-12-01T05:44:42.735Z,1.47
2022-12-01T05:49:45.448Z,1.46
2022-12-01T05:54:49.363Z,1.36
2022-12-01T05:59:51.941Z,1.20
2022-12-01T06:04:54.788Z,1.24
2022-12-01T06:09:58.704Z,1.11
2022-12-01T06:15:01.585Z,1.10
2022-12-01T06:20:04.593Z,0.92
2022-12-01T06:25:10.076Z,1.05
2022-12-01T06:30:13.206Z,1.19
2022-12-01T06:35:15.897Z,1.03
2022-12-01T06:40:20.093Z,1.49
2022-12-01T06:45:22.649Z,1.38
2022-12-01T06:50:25.948Z,1.27
2022-12-01T06:55:29.906Z,1.15
2022-12-01T07:00:33.260Z,1.31
2022-12-01T07:05:35.866Z,1.74
2022-12-01T07:10:39.962Z,1.58
2022-12-01T07:15:43.353Z,2.16
2022-12-01T07:20:45.874Z,1.90
2022-12-01T07:25:49.737Z,1.27
2022-12-01T07:30:52.424Z,1.16
2022-12-01T07:35:55.228Z,1.09
2022-12-01T07:41:04.245Z,1.23
2022-12-01T07:46:09.335Z,1.33
2022-12-01T07:51:13.686Z,1.42
2022-12-01T07:56:19.073Z,1.04
2022-12-01T08:01:23.145Z,1.07
2022-12-01T08:06:27.129Z,0.77
2022-12-01T08:11:31.164Z,0.91
2022-12-01T08:16:33.689Z,1.42
2022-12-01T08:21:37.517Z,1.84
2022-12-01T08:26:41.372Z,1.95
2022-12-01T08:31:44.027Z,1.23
2022-12-01T08:36:46.547Z,1.32
2022-12-01T08:41:50.417Z,1.15
2022-12-01T08:46:53.081Z,1.58
2022-12-01T08:51:56.229Z,1.10
2022-12-01T08:57:00.280Z,1.64
2022-12-01T09:02:06.965Z,2.18
2022-12-01T09:07:11.558Z,1.48
2022-12-01T09:12:15.527Z,1.38
2022-12-01T09:17:19.045Z,1.63
2022-12-01T09:22:21.618Z,1.96
2022-12-01T09:27:25.495Z,1.69
2022-12-01T09:32:28.100Z,1.70
2022-12-01T09:37:30.937Z,2.31
2022-12-01T09:42:35.675Z,2.37
2022-12-01T09:47:40.056Z,2.10
2022-12-01T09:52:47.488Z,2.12
2022-12-01T09:57:53.830Z,2.02
2022-12-01T10:03:02.197Z,1.63
2022-12-01T10:08:09.275Z,2.55
2022-12-01T10:13:18.198Z,2.14
2022-12-01T10:18:33.268Z,1.98
2022-12-01T10:23:50.963Z,2.10
2022-12-01T10:29:11.586Z,2.42
2022-12-01T10:34:17.882Z,2.54
2022-12-01T10:39:28.252Z,2.20
2022-12-01T10:44:32.492Z,2.68
2022-12-01T10:49:39.953Z,1.90
2022-12-01T10:54:42.556Z,2.29
2022-12-01T10:59:53.594Z,2.46
2022-12-01T11:05:00.219Z,2.28
2022-12-01T11:10:16.937Z,1.80
2022-12-01T11:15:26.286Z,1.80
2022-12-01T11:20:35.200Z,1.47
2022-12-01T11:25:38.019Z,1.65
2022-12-01T11:30:42.012Z,1.47
2022-12-01T11:35:49.940Z,1.42
2022-12-01T11:40:54.964Z,1.61
2022-12-01T11:46:03.766Z,1.77
2022-12-01T11:51:09.417Z,2.09
2022-12-01T11:56:17.923Z,2.08
2022-12-01T12:01:33.773Z,1.90
2022-12-01T12:06:48.026Z,1.93
2022-12-01T12:11:58.588Z,2.18
2022-12-01T12:17:21.728Z,1.96
2022-12-01T12:22:36.046Z,1.91
2022-12-01T12:27:48.266Z,2.06
2022-12-01T12:33:16.495Z,2.32
2022-12-01T12:38:38.162Z,2.11
2022-12-01T12:43:50.841Z,1.92
2022-12-01T12:49:22.949Z,1.70
2022-12-01T12:54:31.636Z,2.60
2022-12-01T12:59:43.297Z,2.43
2022-12-01T13:04:54.722Z,2.38
2022-12-01T13:10:03.167Z,2.42
2022-12-01T13:15:14.674Z,2.63
2022-12-01T13:20:27.572Z,2.89
2022-12-01T13:25:36.056Z,2.42
2022-12-01T13:30:39.684Z,2.34
2022-12-01T13:35:43.735Z,1.92
2022-12-01T13:40:47.569Z,2.59
2022-12-01T13:45:51.012Z,2.56
2022-12-01T13:51:01.049Z,2.47
2022-12-01T13:56:25.918Z,2.36
2022-12-01T14:01:47.660Z,2.36
2022-12-01T14:07:22.392Z,2.20
2022-12-01T14:12:30.243Z,2.22
2022-12-01T14:17:35.170Z,2.03
2022-12-01T14:22:42.553Z,2.01
2022-12-01T14:27:45.679Z,2.39
2022-12-01T14:32:48.625Z,2.47
2022-12-01T14:37:53.554Z,1.69
2022-12-01T14:43:16.304Z,1.80
2022-12-01T14:48:24.753Z,1.73
2022-12-01T14:53:32.853Z,1.92
2022-12-01T14:58:35.482Z,2.01
2022-12-01T15:03:41.402Z,2.28
2022-12-01T15:09:03.967Z,2.25
2022-12-01T15:14:24.542Z,2.06
2022-12-01T15:19:37.018Z,1.96
2022-12-01T15:24:41.523Z,2.10
2022-12-01T15:29:46.553Z,2.58
2022-12-01T15:34:50.456Z,2.26
2022-12-01T15:40:25.601Z,2.10
2022-12-01T15:45:23.691Z,2.44
2022-12-01T15:50:31.045Z,1.59
2022-12-01T15:55:37.309Z,2.31
2022-12-01T16:00:39.971Z,2.08
2022-12-01T16:05:45.480Z,2.09
2022-12-01T16:11:13.616Z,1.90
2022-12-01T16:16:40.692Z,2.31
2022-12-01T16:21:46.291Z,2.46
2022-12-01T16:26:52.365Z,2.37
2022-12-01T16:32:19.218Z,2.48
2022-12-01T16:37:22.529Z,2.01
2022-12-01T16:42:26.408Z,2.64
2022-12-01T16:47:32.912Z,2.29
2022-12-01T16:52:44.210Z,2.12
2022-12-01T16:57:49.106Z,1.94
2022-12-01T17:02:52.658Z,2.19
2022-12-01T17:07:55.657Z,1.94
2022-12-01T17:12:59.712Z,2.13
2022-12-01T17:18:04.162Z,2.05
2022-12-01T17:23:06.738Z,2.16
2022-12-01T17:28:12.189Z,1.85
2022-12-01T17:33:14.758Z,2.15
2022-12-01T17:38:17.397Z,1.93
2022-12-01T17:43:23.152Z,1.67
2022-12-01T17:48:25.793Z,1.80
2022-12-01T17:53:28.555Z,1.78
2022-12-01T17:58:32.600Z,1.74
2022-12-01T18:03:36.977Z,1.87
2022-12-01T18:08:41.948Z,1.36
2022-12-01T18:13:47.832Z,1.85
2022-12-01T18:18:50.959Z,2.53
2022-12-01T18:23:55.629Z,2.32
2022-12-01T18:29:04.892Z,2.51
2022-12-01T18:34:09.060Z,2.60
2022-12-01T18:39:12.606Z,2.29
2022-12-01T18:44:16.601Z,2.69
2022-12-01T18:49:22.533Z,2.21
2022-12-01T18:54:27.900Z,2.14
2022-12-01T18:59:31.970Z,2.25
2022-12-01T19:04:34.669Z,2.33
2022-12-01T19:09:37.608Z,1.39
2022-12-01T19:14:41.875Z,1.61
2022-12-01T19:19:47.658Z,2.22
2022-12-01T19:24:51.654Z,1.84
2022-12-01T19:29:56.211Z,1.64
2022-12-01T19:34:59.185Z,2.27
2022-12-01T19:40:02.013Z,1.78
2022-12-01T19:45:07.159Z,2.04
2022-12-01T19:50:15.428Z,1.83
2022-12-01T19:55:26.654Z,2.59
2022-12-01T20:00:31.151Z,1.83
2022-12-01T20:05:38.705Z,1.47
2022-12-01T20:10:47.784Z,1.34
2022-12-01T20:15:52.037Z,2.11
2022-12-01T20:21:05.083Z,2.27
2022-12-01T20:26:11.912Z,2.40
2022-12-01T20:31:18.893Z,2.84
2022-12-01T20:36:22.465Z,2.66
2022-12-01T20:41:30.002Z,2.50
2022-12-01T20:46:34.166Z,1.80
2022-12-01T20:51:36.864Z,1.68
2022-12-01T20:56:39.642Z,1.96
2022-12-01T21:01:55.866Z,1.44
2022-12-01T21:07:03.791Z,1.69
2022-12-01T21:12:31.765Z,1.22
2022-12-01T21:17:40.889Z,1.55
2022-12-01T21:22:43.775Z,1.46
2022-12-01T21:27:47.361Z,1.31
2022-12-01T21:32:52.047Z,1.93
2022-12-01T21:38:02.334Z,1.59
2022-12-01T21:43:17.158Z,2.00
2022-12-01T21:48:23.532Z,1.37
2022-12-01T21:53:31.626Z,1.67
2022-12-01T21:58:37.361Z,1.76
2022-12-01T22:03:45.446Z,1.15
2022-12-01T22:08:50.997Z,1.64
2022-12-01T22:14:00.356Z,1.67
2022-12-01T22:19:25.724Z,1.69
2022-12-01T22:24:33.586Z,1.73
2022-12-01T22:29:41.199Z,1.19
2022-12-01T22:34:50.358Z,1.07
2022-12-01T22:39:55.817Z,1.37
2022-12-01T22:45:01.281Z,1.00
2022-12-01T22:50:24.037Z,1.25
2022-12-01T22:55:26.773Z,1.16
2022-12-01T23:00:32.340Z,1.43
2022-12-01T23:05:36.316Z,1.45
2022-12-01T23:10:40.900Z,1.56
2022-12-01T23:15:46.810Z,1.81
2022-12-01T23:20:52.148Z,2.07
2022-12-01T23:25:55.341Z,1.36
2022-12-01T23:31:00.434Z,1.66
2022-12-01T23:36:13.059Z,1.73
2022-12-01T23:41:25.468Z,1.55
2022-12-01T23:46:29.402Z,1.79
2022-12-01T23:51:36.540Z,1.36
2022-12-01T23:56:42.754Z,1.28
